createdAt,value
2017-07-16T00:00:42.966Z,48.80
2017-07-16T00:03:11.232Z,48.90
2017-07-16T00:05:40.359Z,48.80
2017-07-16T00:08:08.692Z,48.80
2017-07-16T00:10:36.955Z,48.40
2017-07-16T00:13:05.314Z,48.30
2017-07-16T00:15:33.771Z,48.10
2017-07-16T00:18:02.037Z,48.80
2017-07-16T00:20:30.353Z,48.60
2017-07-16T00:22:59.305Z,48.50
2017-07-16T00:25:28.557Z,48.40
2017-07-16T00:27:57.589Z,48.80
2017-07-16T00:30:25.822Z,48.70
2017-07-16T00:32:54.143Z,48.80
2017-07-16T00:35:22.410Z,48.70
2017-07-16T00:37:50.730Z,48.80
2017-07-16T00:40:19.036Z,48.80
2017-07-16T00:42:49.992Z,48.70
2017-07-16T00:45:18.311Z,48.80
2017-07-16T00:47:46.742Z,48.80
2017-07-16T00:50:15.076Z,48.80
2017-07-16T00:52:48.235Z,49.50
2017-07-16T00:55:16.528Z,48.70
2017-07-16T00:57:44.873Z,48.70
2017-07-16T01:00:13.222Z,48.60
2017-07-16T01:02:41.498Z,49.10
2017-07-16T01:05:10.608Z,49.10
2017-07-16T01:07:40.541Z,49.20
2017-07-16T01:10:08.825Z,49.20
2017-07-16T01:12:38.049Z,49.20
2017-07-16T01:15:07.177Z,49.60
2017-07-16T01:17:35.529Z,49.40
2017-07-16T01:20:03.909Z,49.40
2017-07-16T01:22:32.153Z,49.60
2017-07-16T01:25:01.164Z,49.50
2017-07-16T01:27:42.574Z,49.60
2017-07-16T01:30:11.632Z,49.60
2017-07-16T01:32:40.792Z,49.60
2017-07-16T01:35:09.022Z,49.50
2017-07-16T01:37:37.405Z,49.50
2017-07-16T01:40:06.445Z,49.50
2017-07-16T01:42:36.527Z,49.80
2017-07-16T01:45:05.717Z,50.00
2017-07-16T01:47:33.990Z,50.00
2017-07-16T01:50:03.060Z,50.20
2017-07-16T01:52:34.010Z,50.00
2017-07-16T01:55:02.255Z,50.00
2017-07-16T01:57:30.554Z,50.10
2017-07-16T01:59:59.614Z,50.10
2017-07-16T02:02:27.952Z,50.20
2017-07-16T02:04:56.536Z,50.40
2017-07-16T02:07:24.787Z,50.40
2017-07-16T02:09:53.059Z,50.50
2017-07-16T02:12:21.440Z,50.50
2017-07-16T02:14:49.712Z,50.50
2017-07-16T02:17:18.025Z,50.50
2017-07-16T02:19:47.133Z,50.40
2017-07-16T02:22:16.140Z,51.20
2017-07-16T02:24:44.429Z,50.50
2017-07-16T02:27:12.779Z,50.60
2017-07-16T02:29:41.962Z,51.00
2017-07-16T02:32:10.208Z,51.00
2017-07-16T02:34:38.618Z,51.10
2017-07-16T02:37:07.881Z,51.10
2017-07-16T02:39:37.079Z,51.10
2017-07-16T02:42:05.324Z,51.10
2017-07-16T02:44:33.586Z,51.00
2017-07-16T02:47:03.411Z,50.90
2017-07-16T02:49:32.426Z,50.90
2017-07-16T02:52:00.672Z,50.80
2017-07-16T02:54:28.989Z,50.60
2017-07-16T02:56:59.492Z,50.50
2017-07-16T02:59:27.887Z,50.60
2017-07-16T03:01:57.908Z,50.60
2017-07-16T03:04:27.055Z,50.60
2017-07-16T03:06:56.143Z,51.10
2017-07-16T03:09:25.885Z,51.10
2017-07-16T03:11:55.051Z,51.00
2017-07-16T03:14:23.372Z,51.00
2017-07-16T03:16:52.508Z,51.00
2017-07-16T03:19:20.809Z,51.40
2017-07-16T03:21:49.837Z,51.80
2017-07-16T03:24:18.104Z,51.30
2017-07-16T03:26:48.118Z,51.40
2017-07-16T03:29:17.104Z,51.60
2017-07-16T03:31:46.134Z,51.80
2017-07-16T03:34:14.452Z,51.80
2017-07-16T03:36:42.716Z,51.50
2017-07-16T03:39:11.006Z,52.00
2017-07-16T03:41:39.242Z,52.20
2017-07-16T03:44:07.521Z,52.00
2017-07-16T03:46:36.756Z,52.10
2017-07-16T03:49:05.008Z,52.20
2017-07-16T03:51:33.279Z,52.20
2017-07-16T03:54:02.289Z,52.60
2017-07-16T03:56:57.773Z,52.90
2017-07-16T03:59:26.747Z,52.90
2017-07-16T04:01:55.004Z,52.80
2017-07-16T04:04:25.104Z,52.70
2017-07-16T04:06:53.432Z,52.70
2017-07-16T04:09:21.725Z,52.90
2017-07-16T04:11:49.974Z,52.80
2017-07-16T04:14:18.312Z,52.80
2017-07-16T04:16:46.570Z,53.00
2017-07-16T04:19:15.609Z,52.90
2017-07-16T04:21:45.766Z,53.10
2017-07-16T04:24:14.025Z,53.40
2017-07-16T04:26:42.296Z,53.50
2017-07-16T04:29:10.553Z,53.40
2017-07-16T04:31:38.844Z,53.50
2017-07-16T04:34:07.081Z,53.60
2017-07-16T04:36:35.372Z,53.40
2017-07-16T04:39:04.413Z,53.30
2017-07-16T04:41:33.549Z,53.30
2017-07-16T04:44:01.796Z,53.70
2017-07-16T04:46:31.027Z,53.70
2017-07-16T04:49:00.788Z,54.70
2017-07-16T04:51:29.072Z,54.10
2017-07-16T04:53:57.536Z,54.30
2017-07-16T04:56:27.972Z,54.30
2017-07-16T04:58:56.224Z,54.70
2017-07-16T05:01:24.523Z,55.00
2017-07-16T05:03:52.902Z,55.10
2017-07-16T05:06:21.149Z,55.10
2017-07-16T05:08:50.162Z,55.40
2017-07-16T05:11:20.424Z,55.40
2017-07-16T05:13:49.716Z,55.30
2017-07-16T05:16:18.638Z,55.50
2017-07-16T05:18:47.972Z,55.70
2017-07-16T05:21:16.944Z,55.60
2017-07-16T05:23:45.983Z,55.60
2017-07-16T05:26:15.099Z,56.00
2017-07-16T05:28:44.264Z,55.90
2017-07-16T05:31:13.620Z,56.40
2017-07-16T05:33:41.896Z,56.80
2017-07-16T05:36:10.174Z,56.70
2017-07-16T05:38:38.689Z,56.90
2017-07-16T05:41:07.077Z,56.50
2017-07-16T05:43:36.185Z,56.80
2017-07-16T05:46:04.430Z,56.90
2017-07-16T05:48:33.333Z,56.90
2017-07-16T05:51:01.675Z,56.90
2017-07-16T05:53:29.884Z,57.00
2017-07-16T05:55:59.365Z,56.80
2017-07-16T05:58:29.063Z,56.80
2017-07-16T06:00:57.283Z,56.80
2017-07-16T06:03:25.581Z,56.90
2017-07-16T06:05:53.869Z,57.20
2017-07-16T06:08:22.172Z,57.20
2017-07-16T06:10:50.650Z,57.30
2017-07-16T06:13:19.813Z,57.60
2017-07-16T06:15:48.059Z,57.50
2017-07-16T06:18:16.425Z,57.40
2017-07-16T06:20:44.664Z,57.60
2017-07-16T06:23:13.840Z,57.80
2017-07-16T06:25:42.183Z,58.10
2017-07-16T06:28:11.555Z,58.00
2017-07-16T06:30:39.779Z,57.90
2017-07-16T06:33:08.075Z,58.10
2017-07-16T06:35:36.341Z,58.10
2017-07-16T06:38:04.593Z,58.10
2017-07-16T06:40:35.410Z,58.00
2017-07-16T06:43:04.413Z,58.40
2017-07-16T06:45:33.663Z,58.20
2017-07-16T06:48:01.924Z,58.30
2017-07-16T06:50:30.315Z,58.30
2017-07-16T06:53:00.197Z,58.30
2017-07-16T06:55:28.497Z,58.30
2017-07-16T06:57:56.782Z,58.30
2017-07-16T07:00:26.858Z,58.10
2017-07-16T07:02:55.208Z,58.30
2017-07-16T07:05:24.368Z,58.10
2017-07-16T07:07:52.701Z,58.10
2017-07-16T07:10:20.963Z,58.10
2017-07-16T07:12:50.866Z,58.80
2017-07-16T07:15:20.172Z,57.80
2017-07-16T07:17:48.429Z,58.30
2017-07-16T07:20:17.453Z,58.40
2017-07-16T07:22:45.816Z,58.30
2017-07-16T07:25:14.075Z,57.90
2017-07-16T07:27:42.470Z,57.90
2017-07-16T07:30:12.779Z,58.30
2017-07-16T07:32:41.884Z,58.10
2017-07-16T07:35:10.973Z,59.20
2017-07-16T07:37:39.690Z,58.50
2017-07-16T07:40:07.985Z,58.30
2017-07-16T07:42:36.341Z,58.60
2017-07-16T07:45:04.815Z,58.50
2017-07-16T07:47:33.060Z,58.40
2017-07-16T07:50:01.361Z,58.50
2017-07-16T07:52:29.679Z,58.40
2017-07-16T07:54:57.944Z,58.60
2017-07-16T07:57:28.154Z,58.50
2017-07-16T07:59:57.156Z,59.00
2017-07-16T08:02:25.462Z,58.90
2017-07-16T08:04:54.311Z,58.70
2017-07-16T08:07:23.371Z,59.00
2017-07-16T08:09:51.655Z,59.00
2017-07-16T08:12:20.976Z,59.00
2017-07-16T08:14:49.359Z,58.90
2017-07-16T08:17:19.584Z,58.80
2017-07-16T08:19:47.846Z,58.70
2017-07-16T08:22:16.696Z,58.60
2017-07-16T08:24:46.257Z,58.30
2017-07-16T08:27:15.037Z,57.70
2017-07-16T08:29:43.271Z,57.80
2017-07-16T08:32:12.485Z,57.50
2017-07-16T08:34:40.723Z,57.20
2017-07-16T08:37:09.920Z,57.20
2017-07-16T08:39:38.310Z,57.30
2017-07-16T08:42:06.754Z,57.30
2017-07-16T08:44:39.852Z,57.30
2017-07-16T08:47:10.044Z,57.30
2017-07-16T08:49:40.158Z,57.30
2017-07-16T08:52:09.377Z,57.80
2017-07-16T08:54:37.653Z,57.30
2017-07-16T08:57:06.926Z,57.30
2017-07-16T08:59:35.407Z,57.30
2017-07-16T09:02:04.708Z,57.40
2017-07-16T09:04:35.066Z,58.20
2017-07-16T09:07:03.815Z,57.40
2017-07-16T09:09:32.379Z,57.40
2017-07-16T09:12:00.800Z,57.50
2017-07-16T09:14:29.246Z,58.10
2017-07-16T09:16:57.776Z,57.50
2017-07-16T09:19:26.069Z,57.60
2017-07-16T09:21:55.245Z,57.80
2017-07-16T09:24:24.515Z,57.80
2017-07-16T09:26:52.820Z,57.80
2017-07-16T09:29:21.234Z,57.80
2017-07-16T09:31:50.338Z,57.80
2017-07-16T09:34:19.511Z,57.80
2017-07-16T09:36:50.658Z,57.80
2017-07-16T09:39:19.762Z,58.10
2017-07-16T09:41:48.156Z,57.80
2017-07-16T09:44:16.738Z,57.80
2017-07-16T09:46:45.066Z,57.80
2017-07-16T09:49:17.286Z,58.40
2017-07-16T09:51:45.616Z,57.80
2017-07-16T09:54:14.968Z,57.70
2017-07-16T09:56:43.988Z,57.70
2017-07-16T09:59:13.260Z,57.80
2017-07-16T10:01:42.247Z,57.70
2017-07-16T10:04:13.760Z,57.80
2017-07-16T10:06:42.255Z,57.80
2017-07-16T10:09:12.389Z,57.80
2017-07-16T10:11:45.780Z,57.80
2017-07-16T10:14:15.096Z,57.80
2017-07-16T10:16:45.105Z,57.90
2017-07-16T10:19:13.525Z,57.90
2017-07-16T10:21:41.859Z,57.90
2017-07-16T10:24:10.191Z,58.40
2017-07-16T10:26:39.650Z,58.50
2017-07-16T10:29:08.032Z,58.10
2017-07-16T10:31:36.471Z,58.00
2017-07-16T10:34:05.806Z,58.00
2017-07-16T10:36:34.371Z,58.00
2017-07-16T10:39:02.773Z,58.00
2017-07-16T10:41:33.102Z,58.10
2017-07-16T10:44:02.449Z,58.80
2017-07-16T10:46:32.820Z,58.20
2017-07-16T10:49:01.892Z,58.20
2017-07-16T10:51:31.189Z,58.90
2017-07-16T10:54:00.274Z,58.30
2017-07-16T10:56:28.659Z,58.30
2017-07-16T10:58:59.871Z,58.70
2017-07-16T11:01:29.346Z,58.60
2017-07-16T11:03:57.847Z,58.60
2017-07-16T11:06:26.408Z,58.50
2017-07-16T11:09:02.606Z,58.40
2017-07-16T11:11:31.362Z,58.40
2017-07-16T11:13:59.754Z,58.30
2017-07-16T11:16:29.081Z,58.30
2017-07-16T11:18:57.506Z,58.30
2017-07-16T11:21:25.760Z,58.30
2017-07-16T11:23:55.039Z,58.40
2017-07-16T11:26:23.346Z,58.40
2017-07-16T11:28:53.923Z,58.30
2017-07-16T11:31:22.282Z,58.30
2017-07-16T11:33:51.084Z,58.30
2017-07-16T11:36:20.373Z,58.30
2017-07-16T11:38:49.486Z,58.80
2017-07-16T11:41:17.895Z,58.40
2017-07-16T11:43:47.346Z,58.40
2017-07-16T11:46:17.453Z,59.30
2017-07-16T11:48:46.007Z,58.60
2017-07-16T11:51:14.927Z,58.60
2017-07-16T11:53:44.339Z,58.60
2017-07-16T11:56:14.395Z,58.70
2017-07-16T11:58:43.540Z,58.50
2017-07-16T12:01:12.833Z,58.60
2017-07-16T12:03:44.755Z,58.60
2017-07-16T12:06:13.075Z,58.60
2017-07-16T12:08:46.237Z,58.70
2017-07-16T12:11:17.836Z,58.60
2017-07-16T12:13:47.066Z,58.60
2017-07-16T12:16:15.470Z,58.60
2017-07-16T12:18:44.828Z,58.70
2017-07-16T12:21:13.168Z,58.70
2017-07-16T12:23:42.089Z,58.60
2017-07-16T12:26:13.094Z,58.70
2017-07-16T12:28:41.427Z,58.80
2017-07-16T12:31:10.467Z,58.80
2017-07-16T12:33:40.554Z,58.80
2017-07-16T12:36:08.859Z,58.80
2017-07-16T12:38:37.208Z,58.80
2017-07-16T12:41:05.566Z,58.80
2017-07-16T12:43:35.564Z,58.80
2017-07-16T12:46:04.892Z,58.80
2017-07-16T12:48:33.960Z,58.80
2017-07-16T12:51:03.055Z,58.50
2017-07-16T12:53:31.746Z,58.80
2017-07-16T12:56:03.310Z,58.90
2017-07-16T12:58:32.781Z,58.80
2017-07-16T13:01:01.262Z,58.80
2017-07-16T13:03:29.538Z,58.90
2017-07-16T13:05:57.841Z,59.00
2017-07-16T13:08:26.209Z,59.00
2017-07-16T13:10:54.487Z,59.10
2017-07-16T13:13:22.805Z,59.20
2017-07-16T13:15:51.082Z,59.30
2017-07-16T13:18:19.390Z,59.10
2017-07-16T13:20:48.734Z,59.00
2017-07-16T13:23:17.058Z,58.50
2017-07-16T13:25:46.170Z,58.40
2017-07-16T13:28:15.314Z,58.40
2017-07-16T13:30:43.597Z,58.50
2017-07-16T13:33:11.921Z,58.00
2017-07-16T13:35:40.572Z,58.10
2017-07-16T13:38:08.867Z,58.60
2017-07-16T13:40:37.133Z,58.50
2017-07-16T13:43:05.898Z,58.40
2017-07-16T13:45:34.328Z,58.50
2017-07-16T13:48:03.495Z,58.50
2017-07-16T13:50:32.589Z,58.10
2017-07-16T13:53:00.865Z,57.90
2017-07-16T13:55:29.199Z,57.60
2017-07-16T13:57:57.536Z,57.60
2017-07-16T14:00:25.779Z,57.40
2017-07-16T14:02:54.110Z,57.50
2017-07-16T14:05:22.484Z,57.30
2017-07-16T14:07:50.765Z,57.30
2017-07-16T14:10:19.140Z,57.60
2017-07-16T14:12:48.225Z,57.50
2017-07-16T14:15:17.317Z,57.00
2017-07-16T14:17:45.651Z,57.60
2017-07-16T14:20:13.965Z,56.70
2017-07-16T14:22:45.413Z,56.50
2017-07-16T14:25:14.478Z,56.40
2017-07-16T14:27:42.778Z,56.80
2017-07-16T14:30:11.071Z,56.90
2017-07-16T14:32:39.352Z,56.70
2017-07-16T14:35:07.634Z,56.70
2017-07-16T14:37:39.944Z,56.50
2017-07-16T14:40:08.232Z,56.60
2017-07-16T14:42:36.575Z,56.60
2017-07-16T14:45:04.896Z,56.70
2017-07-16T14:47:33.149Z,56.40
2017-07-16T14:50:02.193Z,56.30
2017-07-16T14:52:31.248Z,56.60
2017-07-16T14:54:59.569Z,56.60
2017-07-16T14:57:28.731Z,56.60
2017-07-16T14:59:59.056Z,56.20
2017-07-16T15:02:28.111Z,56.10
2017-07-16T15:04:56.377Z,56.40
2017-07-16T15:07:24.686Z,56.50
2017-07-16T15:09:53.103Z,56.50
2017-07-16T15:12:21.479Z,56.30
2017-07-16T15:14:50.541Z,56.50
2017-07-16T15:17:18.882Z,56.50
2017-07-16T15:19:47.229Z,56.50
2017-07-16T15:22:15.611Z,56.40
2017-07-16T15:24:43.906Z,56.60
2017-07-16T15:27:12.205Z,56.80
2017-07-16T15:29:41.318Z,56.80
2017-07-16T15:32:10.224Z,56.90
2017-07-16T15:34:38.511Z,57.10
2017-07-16T15:37:06.793Z,57.20
2017-07-16T15:39:35.122Z,57.60
2017-07-16T15:42:03.364Z,57.70
2017-07-16T15:44:31.680Z,57.90
2017-07-16T15:47:00.003Z,58.00
2017-07-16T15:49:28.274Z,58.10
2017-07-16T15:51:56.583Z,58.50
2017-07-16T15:54:25.610Z,58.80
2017-07-16T15:56:53.881Z,58.80
2017-07-16T15:59:22.183Z,58.60
2017-07-16T16:01:50.482Z,58.40
2017-07-16T16:04:18.774Z,58.50
2017-07-16T16:06:47.145Z,58.50
2017-07-16T16:09:16.275Z,58.20
2017-07-16T16:11:44.722Z,58.40
2017-07-16T16:14:13.046Z,58.30
2017-07-16T16:16:41.323Z,58.30
2017-07-16T16:19:10.002Z,58.40
2017-07-16T16:21:38.296Z,58.10
2017-07-16T16:24:07.316Z,58.00
2017-07-16T16:26:35.615Z,58.20
2017-07-16T16:29:03.948Z,58.30
2017-07-16T16:31:32.256Z,58.30
2017-07-16T16:34:00.536Z,58.20
2017-07-16T16:36:28.889Z,58.20
2017-07-16T16:38:57.249Z,58.00
2017-07-16T16:41:25.588Z,57.60
2017-07-16T16:43:53.863Z,57.40
2017-07-16T16:46:22.147Z,57.30
2017-07-16T16:48:50.478Z,57.30
2017-07-16T16:51:18.769Z,57.20
2017-07-16T16:53:47.167Z,57.20
2017-07-16T16:56:15.468Z,57.40
2017-07-16T16:58:43.930Z,57.20
2017-07-16T17:01:12.253Z,57.10
2017-07-16T17:03:40.543Z,57.00
2017-07-16T17:06:08.868Z,57.20
2017-07-16T17:08:37.203Z,57.40
2017-07-16T17:11:05.494Z,57.40
2017-07-16T17:13:33.808Z,57.20
2017-07-16T17:16:02.080Z,57.20
2017-07-16T17:18:30.390Z,57.30
2017-07-16T17:20:58.750Z,57.40
2017-07-16T17:23:27.042Z,57.20
2017-07-16T17:25:55.366Z,57.20
2017-07-16T17:28:23.783Z,57.50
2017-07-16T17:30:52.082Z,57.30
2017-07-16T17:33:20.516Z,57.40
2017-07-16T17:35:49.345Z,57.20
2017-07-16T17:38:17.754Z,57.00
2017-07-16T17:40:46.497Z,56.70
2017-07-16T17:43:15.355Z,56.70
2017-07-16T17:45:43.626Z,56.50
2017-07-16T17:48:11.917Z,56.30
2017-07-16T17:50:40.248Z,56.60
2017-07-16T17:53:08.676Z,56.40
2017-07-16T17:55:37.693Z,56.70
2017-07-16T17:58:05.987Z,56.70
2017-07-16T18:00:34.389Z,56.90
2017-07-16T18:03:02.695Z,56.70
2017-07-16T18:05:31.278Z,56.80
2017-07-16T18:07:59.687Z,56.70
2017-07-16T18:10:27.964Z,56.50
2017-07-16T18:12:57.328Z,56.30
2017-07-16T18:15:25.790Z,56.20
2017-07-16T18:17:54.146Z,56.50
2017-07-16T18:20:22.580Z,56.50
2017-07-16T18:22:54.191Z,56.70
2017-07-16T18:25:23.310Z,56.70
2017-07-16T18:27:52.217Z,57.00
2017-07-16T18:30:20.672Z,57.00
2017-07-16T18:32:49.086Z,57.30
2017-07-16T18:35:18.299Z,58.10
2017-07-16T18:37:46.705Z,58.00
2017-07-16T18:40:15.012Z,57.90
2017-07-16T18:42:43.341Z,58.00
2017-07-16T18:45:11.650Z,58.30
2017-07-16T18:47:40.048Z,58.40
2017-07-16T18:50:08.726Z,58.40
2017-07-16T18:52:37.009Z,58.30
2017-07-16T18:55:05.344Z,58.20
2017-07-16T18:57:33.736Z,58.60
2017-07-16T19:00:02.263Z,58.80
2017-07-16T19:02:31.979Z,58.90
2017-07-16T19:05:04.519Z,58.90
2017-07-16T19:07:34.936Z,58.90
2017-07-16T19:10:03.390Z,58.90
2017-07-16T19:12:55.577Z,59.10
2017-07-16T19:15:24.216Z,59.20
2017-07-16T19:17:52.609Z,59.70
2017-07-16T19:20:24.349Z,59.60
2017-07-16T19:22:52.918Z,59.60
2017-07-16T19:28:58.909Z,62.30
2017-07-16T19:31:27.275Z,61.60
2017-07-16T19:33:56.567Z,62.10
2017-07-16T19:36:25.012Z,62.10
2017-07-16T19:38:53.489Z,62.20
2017-07-16T19:41:22.004Z,62.10
2017-07-16T19:43:50.443Z,61.90
2017-07-16T19:46:18.874Z,61.90
2017-07-16T19:48:47.379Z,61.80
2017-07-16T19:51:22.181Z,61.70
2017-07-16T19:53:52.557Z,61.40
2017-07-16T19:56:21.301Z,61.50
2017-07-16T19:58:49.783Z,61.80
2017-07-16T20:01:18.260Z,61.70
2017-07-16T20:03:46.695Z,61.70
2017-07-16T20:06:15.935Z,61.80
2017-07-16T20:08:45.074Z,62.10
2017-07-16T20:11:13.554Z,62.00
2017-07-16T20:13:42.880Z,62.00
2017-07-16T20:16:12.217Z,62.00
2017-07-16T20:18:40.735Z,62.20
2017-07-16T20:21:11.106Z,62.20
2017-07-16T20:23:39.594Z,62.40
2017-07-16T20:26:08.663Z,62.50
2017-07-16T20:28:37.073Z,62.50
2017-07-16T20:31:05.390Z,62.50
2017-07-16T20:33:33.761Z,62.60
2017-07-16T20:36:02.058Z,62.80
2017-07-16T20:38:30.453Z,62.80
2017-07-16T20:40:58.901Z,62.70
2017-07-16T20:43:27.257Z,62.80
2017-07-16T20:45:55.550Z,62.80
2017-07-16T20:48:23.863Z,62.90
2017-07-16T20:50:54.010Z,62.50
2017-07-16T20:53:23.164Z,62.60
2017-07-16T20:55:51.500Z,62.50
2017-07-16T20:58:20.633Z,62.70
2017-07-16T21:00:48.961Z,62.70
2017-07-16T21:03:17.280Z,62.80
2017-07-16T21:05:45.582Z,62.80
2017-07-16T21:08:13.862Z,62.90
2017-07-16T21:10:42.191Z,63.00
2017-07-16T21:13:10.508Z,63.00
2017-07-16T21:15:38.839Z,63.10
2017-07-16T21:18:08.179Z,62.90
2017-07-16T21:20:36.507Z,63.30
2017-07-16T21:23:04.811Z,63.50
2017-07-16T21:25:33.185Z,63.50
2017-07-16T21:28:01.480Z,63.40
2017-07-16T21:30:29.869Z,63.50
2017-07-16T21:32:58.186Z,64.20
2017-07-16T21:35:26.546Z,63.60
2017-07-16T21:37:54.833Z,64.00
2017-07-16T21:40:23.175Z,63.90
2017-07-16T21:42:51.516Z,63.90
2017-07-16T21:45:20.706Z,63.90
2017-07-16T21:47:49.020Z,63.90
2017-07-16T21:50:17.292Z,63.90
2017-07-16T21:52:45.695Z,63.90
2017-07-16T21:55:14.007Z,63.90
2017-07-16T21:57:42.278Z,63.90
2017-07-16T22:00:10.739Z,63.90
2017-07-16T22:02:39.024Z,63.90
2017-07-16T22:05:07.338Z,64.00
2017-07-16T22:07:35.663Z,64.00
2017-07-16T22:10:03.931Z,64.00
2017-07-16T22:12:32.261Z,63.90
2017-07-16T22:15:00.614Z,63.90
2017-07-16T22:17:28.928Z,63.90
2017-07-16T22:19:57.224Z,63.90
2017-07-16T22:22:25.571Z,64.20
2017-07-16T22:24:53.810Z,64.20
2017-07-16T22:27:22.090Z,64.30
2017-07-16T22:29:50.564Z,64.30
2017-07-16T22:32:18.934Z,64.50
2017-07-16T22:34:47.204Z,64.50
2017-07-16T22:37:15.507Z,64.60
2017-07-16T22:39:43.773Z,64.50
2017-07-16T22:42:12.026Z,64.50
2017-07-16T22:44:40.316Z,64.70
2017-07-16T22:47:08.596Z,64.60
2017-07-16T22:49:36.903Z,64.70
2017-07-16T22:52:05.167Z,64.60
2017-07-16T22:54:33.424Z,64.70
2017-07-16T22:57:01.712Z,64.70
2017-07-16T22:59:30.033Z,64.70
2017-07-16T23:01:58.334Z,64.80
2017-07-16T23:04:26.581Z,64.80
2017-07-16T23:06:54.910Z,64.70
2017-07-16T23:09:23.173Z,64.70
2017-07-16T23:11:51.467Z,64.80
2017-07-16T23:14:20.059Z,64.90
2017-07-16T23:16:49.182Z,65.50
2017-07-16T23:19:17.439Z,64.70
2017-07-16T23:21:45.739Z,64.80
2017-07-16T23:24:14.005Z,64.80
2017-07-16T23:26:42.302Z,64.80
2017-07-16T23:29:10.683Z,64.80
2017-07-16T23:31:39.704Z,64.80
2017-07-16T23:34:07.970Z,65.00
2017-07-16T23:36:36.288Z,65.00
2017-07-16T23:39:04.580Z,65.00
2017-07-16T23:41:32.829Z,65.00
2017-07-16T23:44:01.171Z,65.10
2017-07-16T23:46:29.436Z,65.10
2017-07-16T23:48:57.713Z,65.10
2017-07-16T23:51:26.036Z,65.00
2017-07-16T23:53:54.317Z,65.10
2017-07-16T23:56:22.575Z,65.20
2017-07-16T23:58:50.906Z,65.30
